createdAt,value
2019-06-08T00:01:44.915Z,9.07
2019-06-08T00:04:14.423Z,9.30
2019-06-08T00:06:43.201Z,9.77
2019-06-08T00:09:12.944Z,10.00
2019-06-08T00:11:41.879Z,10.40
2019-06-08T00:14:10.536Z,9.53
2019-06-08T00:16:39.366Z,10.30
2019-06-08T00:19:08.108Z,9.50
2019-06-08T00:21:36.762Z,9.83
2019-06-08T00:24:05.490Z,8.97
2019-06-08T00:26:34.199Z,9.03
2019-06-08T00:29:02.918Z,9.20
2019-06-08T00:31:31.518Z,8.53
2019-06-08T00:34:00.124Z,8.90
2019-06-08T00:36:28.656Z,8.40
2019-06-08T00:38:57.331Z,7.93
2019-06-08T00:41:26.011Z,8.73
2019-06-08T00:43:54.717Z,8.83
2019-06-08T00:46:25.575Z,8.60
2019-06-08T00:48:54.404Z,8.77
2019-06-08T00:51:25.557Z,8.33
2019-06-08T00:53:54.611Z,8.57
2019-06-08T00:56:23.800Z,8.20
2019-06-08T00:58:53.605Z,8.60
2019-06-08T01:01:23.318Z,9.43
2019-06-08T01:03:52.587Z,8.90
2019-06-08T01:06:21.225Z,9.53
2019-06-08T01:08:49.845Z,9.70
2019-06-08T01:11:18.634Z,9.87
2019-06-08T01:13:47.461Z,9.80
2019-06-08T01:16:16.274Z,9.70
2019-06-08T01:18:44.721Z,9.53
2019-06-08T01:21:13.364Z,10.03
2019-06-08T01:23:41.997Z,10.90
2019-06-08T01:26:10.886Z,11.20
2019-06-08T01:28:39.689Z,11.77
2019-06-08T01:31:08.640Z,13.10
2019-06-08T01:33:37.210Z,13.53
2019-06-08T01:36:05.837Z,14.80
2019-06-08T01:38:34.579Z,14.43
2019-06-08T01:41:03.404Z,14.27
2019-06-08T01:43:32.003Z,15.43
2019-06-08T01:46:00.761Z,14.13
2019-06-08T01:48:30.258Z,14.60
2019-06-08T01:51:00.162Z,14.67
2019-06-08T01:53:28.951Z,16.30
2019-06-08T01:55:57.460Z,14.07
2019-06-08T01:58:27.328Z,15.20
2019-06-08T02:00:56.315Z,15.93
2019-06-08T02:03:26.253Z,15.73
2019-06-08T02:05:55.095Z,16.27
2019-06-08T02:08:24.430Z,17.30
2019-06-08T02:10:53.208Z,17.30
2019-06-08T02:13:21.902Z,15.73
2019-06-08T02:15:50.823Z,16.97
2019-06-08T02:18:32.492Z,15.87
2019-06-08T02:20:49.965Z,16.13
2019-06-08T02:23:18.502Z,16.57
2019-06-08T02:25:46.977Z,16.10
2019-06-08T02:28:15.620Z,17.10
2019-06-08T02:30:44.293Z,15.90
2019-06-08T02:33:32.523Z,16.67
2019-06-08T02:36:01.625Z,16.60
2019-06-08T02:38:31.932Z,16.90
2019-06-08T02:41:01.023Z,17.17
2019-06-08T02:43:30.852Z,17.47
2019-06-08T02:45:59.775Z,18.60
2019-06-08T02:48:29.527Z,19.10
2019-06-08T02:50:59.431Z,18.17
2019-06-08T02:53:29.632Z,16.93
2019-06-08T02:55:59.032Z,18.70
2019-06-08T02:58:29.226Z,16.83
2019-06-08T03:00:58.063Z,17.03
2019-06-08T03:03:29.531Z,16.43
2019-06-08T03:06:01.346Z,16.30
2019-06-08T03:08:32.512Z,15.80
2019-06-08T03:11:05.017Z,15.50
2019-06-08T03:13:35.744Z,15.27
2019-06-08T03:16:04.737Z,15.87
2019-06-08T03:18:33.845Z,14.60
2019-06-08T03:21:04.144Z,14.83
2019-06-08T03:23:34.201Z,13.93
2019-06-08T03:26:03.233Z,14.50
2019-06-08T03:28:32.608Z,14.47
2019-06-08T03:31:02.040Z,13.60
2019-06-08T03:33:30.653Z,13.20
2019-06-08T03:35:59.199Z,13.87
2019-06-08T03:38:27.924Z,14.20
2019-06-08T03:40:56.889Z,13.37
2019-06-08T03:43:27.705Z,13.27
2019-06-08T03:45:58.483Z,13.20
2019-06-08T03:48:27.184Z,12.90
2019-06-08T03:50:55.789Z,12.10
2019-06-08T03:53:24.597Z,13.23
2019-06-08T03:56:02.589Z,12.57
2019-06-08T03:58:34.021Z,12.47
2019-06-08T04:01:01.884Z,12.70
2019-06-08T04:03:30.716Z,12.57
2019-06-08T04:05:59.572Z,13.43
2019-06-08T04:08:28.164Z,13.97
2019-06-08T04:10:57.860Z,13.33
2019-06-08T04:13:26.566Z,13.03
2019-06-08T04:15:56.514Z,12.33
2019-06-08T04:18:25.445Z,11.13
2019-06-08T04:20:56.297Z,12.83
2019-06-08T04:23:24.876Z,11.83
2019-06-08T04:25:53.646Z,11.87
2019-06-08T04:28:24.330Z,10.63
2019-06-08T04:30:55.241Z,11.63
2019-06-08T04:33:24.122Z,11.50
2019-06-08T04:35:54.822Z,11.67
2019-06-08T04:38:29.156Z,11.70
2019-06-08T04:41:01.325Z,10.07
2019-06-08T04:43:29.821Z,11.27
2019-06-08T04:45:58.347Z,10.87
2019-06-08T04:48:27.072Z,11.03
2019-06-08T04:50:55.630Z,11.30
2019-06-08T04:53:24.367Z,11.50
2019-06-08T04:55:53.243Z,11.40
2019-06-08T04:58:22.181Z,11.13
2019-06-08T05:00:51.155Z,10.70
2019-06-08T05:03:19.902Z,16.90
2019-06-08T05:05:50.130Z,15.27
2019-06-08T05:08:19.020Z,11.87
2019-06-08T05:10:49.469Z,11.03
2019-06-08T05:13:18.540Z,11.33
2019-06-08T05:15:50.343Z,10.87
2019-06-08T05:18:19.288Z,10.50
2019-06-08T05:20:49.820Z,11.33
2019-06-08T05:23:18.529Z,10.40
2019-06-08T05:25:47.349Z,10.27
2019-06-08T05:28:15.858Z,9.60
2019-06-08T05:30:45.781Z,10.13
2019-06-08T05:33:16.165Z,10.57
2019-06-08T05:35:45.502Z,10.33
2019-06-08T05:38:14.511Z,9.47
2019-06-08T05:40:43.605Z,9.60
2019-06-08T05:43:12.429Z,8.87
2019-06-08T05:45:41.529Z,9.00
2019-06-08T05:48:10.346Z,8.47
2019-06-08T05:50:54.658Z,9.73
2019-06-08T05:53:09.761Z,9.03
2019-06-08T05:55:39.702Z,9.27
2019-06-08T05:58:12.567Z,9.70
2019-06-08T06:00:42.131Z,9.20
2019-06-08T06:03:10.998Z,10.00
2019-06-08T06:05:40.236Z,9.57
2019-06-08T06:08:18.959Z,9.93
2019-06-08T06:10:42.782Z,10.93
2019-06-08T06:13:11.768Z,9.90
2019-06-08T06:15:43.234Z,10.07
2019-06-08T06:18:13.842Z,9.43
2019-06-08T06:20:43.337Z,10.53
2019-06-08T06:23:14.251Z,9.30
2019-06-08T06:25:43.360Z,8.90
2019-06-08T06:28:12.183Z,8.53
2019-06-08T06:30:41.541Z,8.57
2019-06-08T06:33:10.455Z,9.30
2019-06-08T06:35:39.852Z,8.83
2019-06-08T06:38:08.491Z,7.93
2019-06-08T06:40:37.248Z,7.83
2019-06-08T06:43:05.831Z,7.83
2019-06-08T06:45:34.547Z,8.80
2019-06-08T06:48:03.273Z,8.60
2019-06-08T06:50:32.201Z,7.87
2019-06-08T06:53:03.874Z,7.80
2019-06-08T06:55:33.062Z,7.87
2019-06-08T06:58:01.774Z,8.83
2019-06-08T07:00:31.403Z,7.10
2019-06-08T07:03:00.824Z,7.40
2019-06-08T07:05:29.418Z,7.70
2019-06-08T07:07:58.033Z,7.80
2019-06-08T07:10:26.934Z,7.63
2019-06-08T07:12:55.531Z,7.90
2019-06-08T07:15:27.979Z,7.47
2019-06-08T07:17:58.401Z,8.10
2019-06-08T07:20:27.566Z,8.03
2019-06-08T07:22:56.221Z,7.37
2019-06-08T07:25:24.909Z,7.80
2019-06-08T07:27:57.061Z,7.83
2019-06-08T07:30:25.916Z,7.40
2019-06-08T07:32:59.199Z,8.03
2019-06-08T07:35:28.319Z,7.73
2019-06-08T07:37:57.086Z,7.97
2019-06-08T07:40:25.820Z,8.57
2019-06-08T07:42:55.245Z,7.37
2019-06-08T07:45:24.937Z,8.47
2019-06-08T07:47:54.009Z,8.23
2019-06-08T07:50:22.730Z,8.10
2019-06-08T07:52:52.774Z,7.43
2019-06-08T07:55:21.572Z,7.67
2019-06-08T07:57:50.499Z,7.20
2019-06-08T08:00:20.558Z,7.67
2019-06-08T08:02:50.169Z,9.13
2019-06-08T08:05:19.050Z,7.90
2019-06-08T08:07:48.345Z,9.33
2019-06-08T08:10:17.256Z,8.53
2019-06-08T08:12:47.057Z,7.77
2019-06-08T08:15:16.039Z,8.07
2019-06-08T08:17:44.869Z,7.70
2019-06-08T08:20:13.698Z,8.07
2019-06-08T08:22:47.912Z,6.20
2019-06-08T08:25:18.253Z,6.57
2019-06-08T08:27:50.873Z,7.30
2019-06-08T08:30:21.079Z,7.23
2019-06-08T08:32:50.919Z,6.67
2019-06-08T08:35:20.304Z,7.53
2019-06-08T08:37:53.362Z,6.20
2019-06-08T08:40:19.943Z,6.67
2019-06-08T08:42:50.564Z,6.05
2019-06-08T08:45:19.594Z,5.60
2019-06-08T08:47:48.632Z,5.80
2019-06-08T08:50:18.659Z,5.62
2019-06-08T08:52:47.685Z,5.33
2019-06-08T08:55:20.208Z,5.80
2019-06-08T08:57:48.374Z,6.00
2019-06-08T09:00:20.684Z,5.72
2019-06-08T09:02:59.071Z,5.47
2019-06-08T09:05:19.842Z,6.13
2019-06-08T09:07:48.435Z,5.70
2019-06-08T09:10:18.367Z,6.22
2019-06-08T09:12:48.594Z,6.37
2019-06-08T09:15:19.219Z,6.25
2019-06-08T09:17:48.297Z,7.03
2019-06-08T09:20:19.310Z,6.03
2019-06-08T09:22:56.692Z,5.85
2019-06-08T09:25:18.411Z,6.33
2019-06-08T09:27:48.174Z,6.15
2019-06-08T09:30:18.365Z,6.65
2019-06-08T09:32:50.508Z,7.40
2019-06-08T09:35:21.370Z,7.72
2019-06-08T09:37:49.699Z,7.42
2019-06-08T09:40:18.544Z,7.20
2019-06-08T09:42:51.447Z,6.42
2019-06-08T09:45:20.875Z,6.75
2019-06-08T09:47:49.581Z,6.83
2019-06-08T09:50:18.696Z,7.40
2019-06-08T09:52:47.889Z,7.00
2019-06-08T09:55:18.141Z,7.80
2019-06-08T09:57:48.555Z,7.20
2019-06-08T10:00:21.471Z,6.83
2019-06-08T10:02:48.527Z,6.45
2019-06-08T10:05:20.499Z,6.92
2019-06-08T10:07:49.171Z,6.85
2019-06-08T10:10:18.289Z,7.70
2019-06-08T10:12:48.521Z,6.85
2019-06-08T10:15:18.324Z,6.45
2019-06-08T10:17:47.726Z,6.62
2019-06-08T10:20:18.448Z,6.83
2019-06-08T10:22:50.007Z,6.30
2019-06-08T10:25:21.157Z,7.00
2019-06-08T10:27:49.837Z,7.42
2019-06-08T10:30:18.744Z,6.80
2019-06-08T10:32:50.392Z,6.40
2019-06-08T10:35:20.624Z,7.05
2019-06-08T10:37:51.194Z,6.45
2019-06-08T10:40:19.180Z,6.25
2019-06-08T10:42:48.242Z,7.12
2019-06-08T10:45:19.313Z,7.17
2019-06-08T10:47:48.355Z,6.90
2019-06-08T10:50:19.226Z,7.05
2019-06-08T10:52:47.714Z,7.47
2019-06-08T10:55:18.041Z,8.38
2019-06-08T10:57:47.749Z,7.65
2019-06-08T11:00:24.114Z,7.62
2019-06-08T11:02:53.324Z,7.80
2019-06-08T11:05:22.148Z,7.55
2019-06-08T11:07:51.995Z,6.70
2019-06-08T11:10:22.752Z,7.10
2019-06-08T11:13:06.797Z,7.28
2019-06-08T11:15:34.550Z,7.30
2019-06-08T11:18:05.879Z,7.17
2019-06-08T11:20:33.936Z,7.95
2019-06-08T11:23:03.980Z,8.08
2019-06-08T11:25:34.185Z,7.45
2019-06-08T11:28:03.745Z,8.00
2019-06-08T11:30:32.909Z,7.72
2019-06-08T11:33:02.074Z,7.87
2019-06-08T11:35:31.040Z,7.85
2019-06-08T11:38:00.221Z,8.03
2019-06-08T11:40:28.821Z,9.58
2019-06-08T11:42:58.614Z,8.00
2019-06-08T11:45:27.613Z,8.85
2019-06-08T11:47:58.366Z,9.68
2019-06-08T11:50:41.558Z,8.55
2019-06-08T11:53:13.635Z,7.90
2019-06-08T11:55:38.574Z,7.45
2019-06-08T11:58:09.847Z,8.70
2019-06-08T12:00:55.381Z,8.30
2019-06-08T12:03:23.975Z,8.43
2019-06-08T12:05:52.661Z,7.72
2019-06-08T12:08:21.446Z,7.60
2019-06-08T12:10:50.211Z,7.65
2019-06-08T12:13:19.891Z,8.88
2019-06-08T12:15:49.113Z,8.65
2019-06-08T12:18:18.258Z,8.00
2019-06-08T12:20:48.881Z,8.95
2019-06-08T12:23:17.673Z,8.58
2019-06-08T12:25:46.272Z,8.75
2019-06-08T12:28:14.815Z,8.43
2019-06-08T12:30:47.900Z,7.62
2019-06-08T12:33:18.638Z,7.60
2019-06-08T12:35:48.502Z,8.38
2019-06-08T12:38:18.907Z,8.33
2019-06-08T12:40:48.582Z,7.97
2019-06-08T12:43:19.826Z,7.70
2019-06-08T12:45:47.885Z,8.18
2019-06-08T12:48:20.451Z,8.00
2019-06-08T12:50:50.503Z,8.05
2019-06-08T12:53:22.848Z,8.38
2019-06-08T12:55:53.845Z,8.30
2019-06-08T12:58:22.532Z,7.65
2019-06-08T13:00:51.301Z,7.90
2019-06-08T13:03:19.971Z,8.58
2019-06-08T13:05:50.191Z,8.00
2019-06-08T13:08:21.517Z,8.08
2019-06-08T13:10:49.105Z,9.75
2019-06-08T13:13:20.002Z,8.30
2019-06-08T13:15:48.634Z,8.43
2019-06-08T13:18:19.779Z,8.38
2019-06-08T13:20:49.017Z,8.48
2019-06-08T13:23:19.935Z,9.53
2019-06-08T13:25:48.644Z,9.60
2019-06-08T13:28:24.514Z,8.80
2019-06-08T13:30:48.011Z,7.15
2019-06-08T13:33:16.833Z,6.35
2019-06-08T13:35:47.970Z,7.12
2019-06-08T13:38:19.636Z,6.80
2019-06-08T13:40:48.451Z,6.92
2019-06-08T13:43:19.832Z,6.72
2019-06-08T13:45:48.591Z,6.67
2019-06-08T13:48:18.963Z,6.90
2019-06-08T13:50:49.919Z,7.53
2019-06-08T13:53:24.323Z,6.50
2019-06-08T13:55:56.158Z,6.62
2019-06-08T13:58:26.752Z,6.60
2019-06-08T14:00:50.206Z,7.55
2019-06-08T14:03:21.076Z,7.28
2019-06-08T14:05:49.187Z,7.03
2019-06-08T14:08:22.913Z,6.65
2019-06-08T14:10:52.935Z,6.83
2019-06-08T14:13:29.313Z,6.83
2019-06-08T14:15:53.156Z,6.72
2019-06-08T14:18:29.967Z,6.42
2019-06-08T14:21:12.764Z,6.85
2019-06-08T14:24:01.569Z,7.37
2019-06-08T14:26:33.368Z,6.90
2019-06-08T14:29:02.089Z,6.08
2019-06-08T14:31:32.166Z,6.85
2019-06-08T14:34:01.285Z,6.20
2019-06-08T14:36:30.455Z,6.70
2019-06-08T14:39:02.398Z,6.40
2019-06-08T14:41:31.660Z,6.53
2019-06-08T14:44:00.284Z,6.87
2019-06-08T14:46:30.156Z,6.35
2019-06-08T14:48:59.221Z,6.80
2019-06-08T14:51:47.811Z,5.65
2019-06-08T14:54:23.464Z,5.72
2019-06-08T14:56:49.607Z,6.30
2019-06-08T14:59:20.087Z,5.85
2019-06-08T15:01:49.134Z,6.60
2019-06-08T15:04:20.277Z,6.20
2019-06-08T15:06:50.811Z,5.33
2019-06-08T15:09:19.535Z,6.20
2019-06-08T15:11:48.329Z,6.12
2019-06-08T15:14:17.039Z,6.15
2019-06-08T15:16:49.345Z,6.20
2019-06-08T15:19:18.423Z,5.87
2019-06-08T15:21:48.445Z,6.80
2019-06-08T15:24:18.542Z,6.80
2019-06-08T15:26:48.695Z,6.35
2019-06-08T15:29:18.164Z,5.45
2019-06-08T15:31:48.222Z,6.25
2019-06-08T15:34:17.852Z,6.45
2019-06-08T15:36:46.828Z,6.65
2019-06-08T15:39:17.701Z,5.97
2019-06-08T15:41:46.005Z,7.00
2019-06-08T15:44:19.005Z,6.95
2019-06-08T15:46:47.673Z,6.35
2019-06-08T15:49:18.480Z,5.15
2019-06-08T15:51:50.405Z,6.90
2019-06-08T15:54:19.185Z,12.00
2019-06-08T15:56:51.414Z,11.68
2019-06-08T15:59:18.087Z,9.58
2019-06-08T16:01:46.851Z,11.75
2019-06-08T16:04:19.026Z,10.55
2019-06-08T16:06:52.603Z,11.43
2019-06-08T16:09:21.265Z,11.00
2019-06-08T16:11:50.007Z,11.38
2019-06-08T16:14:18.751Z,13.10
2019-06-08T16:16:48.267Z,13.32
2019-06-08T16:19:16.972Z,13.13
2019-06-08T16:21:45.672Z,14.05
2019-06-08T16:24:14.351Z,12.18
2019-06-08T16:26:52.985Z,12.60
2019-06-08T16:29:13.583Z,13.32
2019-06-08T16:31:42.306Z,12.28
2019-06-08T16:34:11.009Z,12.37
2019-06-08T16:36:40.158Z,11.43
2019-06-08T16:39:08.975Z,12.60
2019-06-08T16:41:37.635Z,12.80
2019-06-08T16:44:07.322Z,13.20
2019-06-08T16:46:36.629Z,13.83
2019-06-08T16:49:05.604Z,12.93
2019-06-08T16:51:35.675Z,11.90
2019-06-08T16:54:07.196Z,12.20
2019-06-08T16:56:36.617Z,12.23
2019-06-08T16:59:05.498Z,11.95
2019-06-08T17:01:34.748Z,10.85
2019-06-08T17:04:03.725Z,10.82
2019-06-08T17:06:33.312Z,11.40
2019-06-08T17:09:02.572Z,12.03
2019-06-08T17:11:33.688Z,11.78
2019-06-08T17:14:02.515Z,11.93
2019-06-08T17:16:32.214Z,10.53
2019-06-08T17:19:02.063Z,10.63
2019-06-08T17:21:31.917Z,9.73
2019-06-08T17:24:00.842Z,9.63
2019-06-08T17:26:30.523Z,10.23
2019-06-08T17:28:59.569Z,9.90
2019-06-08T17:31:28.290Z,13.90
2019-06-08T17:33:57.096Z,12.37
2019-06-08T17:36:25.798Z,11.48
2019-06-08T17:38:54.477Z,11.38
2019-06-08T17:41:23.125Z,11.68
2019-06-08T17:43:51.886Z,12.18
2019-06-08T17:46:20.706Z,12.37
2019-06-08T17:49:24.283Z,11.78
2019-06-08T17:51:55.112Z,11.05
2019-06-08T17:54:25.312Z,11.38
2019-06-08T17:56:53.964Z,11.95
2019-06-08T17:59:22.812Z,12.63
2019-06-08T18:01:51.574Z,13.53
2019-06-08T18:04:20.370Z,13.78
2019-06-08T18:06:49.171Z,12.88
2019-06-08T18:09:18.013Z,13.18
2019-06-08T18:11:48.033Z,13.22
2019-06-08T18:14:18.103Z,13.60
2019-06-08T18:16:47.958Z,14.07
2019-06-08T18:19:28.542Z,14.55
2019-06-08T18:22:04.723Z,14.58
2019-06-08T18:24:28.258Z,15.50
2019-06-08T18:26:58.602Z,16.23
2019-06-08T18:29:27.742Z,16.05
2019-06-08T18:31:58.129Z,16.82
2019-06-08T18:34:28.510Z,16.87
2019-06-08T18:36:57.969Z,17.17
2019-06-08T18:39:28.153Z,18.05
2019-06-08T18:41:58.860Z,16.30
2019-06-08T18:44:28.468Z,15.53
2019-06-08T18:46:57.771Z,16.95
2019-06-08T18:49:28.896Z,15.28
2019-06-08T18:51:58.218Z,16.60
2019-06-08T18:54:27.804Z,15.40
2019-06-08T18:56:57.072Z,16.32
2019-06-08T18:59:25.696Z,15.85
2019-06-08T19:01:54.473Z,14.68
2019-06-08T19:04:23.236Z,14.25
2019-06-08T19:06:53.098Z,14.50
2019-06-08T19:09:22.079Z,15.05
2019-06-08T19:11:50.790Z,14.78
2019-06-08T19:14:20.816Z,14.78
2019-06-08T19:16:54.257Z,14.85
2019-06-08T19:19:21.179Z,14.95
2019-06-08T19:21:50.398Z,16.20
2019-06-08T19:24:19.418Z,15.68
2019-06-08T19:26:49.073Z,16.42
2019-06-08T19:29:19.442Z,15.18
2019-06-08T19:31:51.174Z,16.15
2019-06-08T19:34:18.871Z,18.15
2019-06-08T19:36:52.206Z,16.62
2019-06-08T19:39:17.956Z,17.10
2019-06-08T19:41:49.229Z,17.35
2019-06-08T19:44:18.356Z,17.42
2019-06-08T19:46:51.142Z,17.48
2019-06-08T19:49:17.929Z,17.83
2019-06-08T19:51:48.532Z,17.27
2019-06-08T19:54:18.563Z,19.05
2019-06-08T19:56:52.133Z,19.12
2019-06-08T19:59:19.128Z,19.82
2019-06-08T20:01:51.335Z,19.73
2019-06-08T20:04:30.121Z,21.12
2019-06-08T20:07:00.649Z,20.53
2019-06-08T20:09:29.315Z,20.82
2019-06-08T20:12:00.126Z,19.82
2019-06-08T20:14:28.420Z,20.97
2019-06-08T20:16:57.790Z,20.88
2019-06-08T20:19:28.012Z,22.20
2019-06-08T20:21:58.334Z,23.57
2019-06-08T20:24:27.844Z,22.82
2019-06-08T20:26:56.790Z,21.10
2019-06-08T20:29:27.918Z,24.52
2019-06-08T20:31:58.196Z,24.40
2019-06-08T20:34:27.066Z,22.60
2019-06-08T20:36:57.392Z,21.90
2019-06-08T20:39:27.328Z,24.07
2019-06-08T20:41:58.259Z,23.00
2019-06-08T20:44:29.938Z,23.00
2019-06-08T20:46:57.716Z,23.37
2019-06-08T20:49:27.883Z,24.98
2019-06-08T20:51:57.072Z,24.45
2019-06-08T20:54:27.832Z,25.03
2019-06-08T20:56:57.996Z,23.93
2019-06-08T20:59:30.866Z,23.57
2019-06-08T21:01:59.055Z,23.73
2019-06-08T21:04:28.128Z,24.93
2019-06-08T21:06:57.389Z,25.30
2019-06-08T21:09:27.791Z,25.60
2019-06-08T21:11:58.796Z,23.37
2019-06-08T21:14:27.417Z,22.07
2019-06-08T21:16:58.445Z,23.17
2019-06-08T21:19:28.094Z,21.87
2019-06-08T21:21:59.158Z,23.80
2019-06-08T21:24:28.090Z,23.97
2019-06-08T21:27:00.403Z,24.87
2019-06-08T21:29:44.261Z,22.77
2019-06-08T21:32:01.812Z,22.43
2019-06-08T21:34:28.302Z,21.87
2019-06-08T21:37:00.694Z,22.83
2019-06-08T21:39:28.247Z,21.77
2019-06-08T21:42:01.017Z,23.27
2019-06-08T21:44:27.891Z,22.83
2019-06-08T21:47:08.394Z,25.43
2019-06-08T21:49:38.413Z,22.83
2019-06-08T21:52:07.431Z,24.80
2019-06-08T21:54:37.543Z,24.87
2019-06-08T21:57:09.388Z,25.47
2019-06-08T21:59:37.896Z,25.57
2019-06-08T22:02:08.563Z,26.23
2019-06-08T22:04:37.396Z,26.00
2019-06-08T22:07:07.079Z,26.80
2019-06-08T22:09:37.444Z,26.73
2019-06-08T22:12:07.154Z,27.43
2019-06-08T22:14:37.869Z,28.73
2019-06-08T22:17:07.882Z,28.60
2019-06-08T22:19:38.145Z,28.87
2019-06-08T22:22:08.375Z,28.80
2019-06-08T22:24:38.477Z,28.17
2019-06-08T22:27:07.322Z,26.83
2019-06-08T22:29:38.166Z,28.10
2019-06-08T22:32:07.676Z,28.43
2019-06-08T22:34:37.185Z,27.90
2019-06-08T22:37:08.319Z,28.33
2019-06-08T22:39:37.352Z,30.47
2019-06-08T22:42:08.380Z,28.23
2019-06-08T22:44:37.564Z,31.50
2019-06-08T22:47:08.138Z,29.80
2019-06-08T22:49:38.453Z,28.50
2019-06-08T22:52:08.177Z,27.40
2019-06-08T22:54:38.310Z,25.30
2019-06-08T22:57:08.070Z,24.97
2019-06-08T22:59:37.369Z,23.60
2019-06-08T23:02:08.930Z,22.97
2019-06-08T23:04:37.042Z,21.03
2019-06-08T23:07:08.802Z,22.00
2019-06-08T23:09:37.319Z,21.30
2019-06-08T23:12:09.164Z,23.23
2019-06-08T23:14:37.667Z,22.80
2019-06-08T23:17:08.492Z,21.30
2019-06-08T23:19:37.924Z,20.80
2019-06-08T23:22:08.386Z,21.93
2019-06-08T23:24:38.253Z,21.50
2019-06-08T23:27:07.332Z,23.03
2019-06-08T23:29:38.126Z,21.63
2019-06-08T23:32:11.472Z,21.87
2019-06-08T23:34:38.302Z,22.37
2019-06-08T23:37:12.471Z,22.10
2019-06-08T23:39:37.716Z,22.37
2019-06-08T23:42:06.506Z,23.83
2019-06-08T23:44:37.613Z,22.83
2019-06-08T23:47:06.066Z,22.17
2019-06-08T23:49:34.881Z,23.90
2019-06-08T23:52:05.115Z,23.20
2019-06-08T23:54:33.977Z,23.30
2019-06-08T23:57:02.910Z,25.17
2019-06-08T23:59:31.510Z,24.87
